CPA875 KDFW-VHHH
Flight info
| Callsign | CPA875 |
|---|---|
| Flight time | N/A |
| Altitude | 40000 |
| Route | HUDAD2 HUDAD DCT SPS DCT MMB DCT GLD DCT CZI DCT BIL J13 GTF J569 YXC DCT 51N120W 56N130W 58N140W 60N160W DCT NULUK R220 IXE Y88 NAKTU Y12 KOHWA Y54 TURFY Y24 KOSHI Y50 IGMON A1 ELATO V522 ABBEY |
| Aircraft | A35K/H-SDE2E3GHIJ3J4J5LM1ORWXY/LB1D1 |
Departure
| Time | 2026-04-30 12:32 |
|---|---|
| Airport | Dallas Fort Worth International Airport (KDFW) |
Arrival
| Time | N/A |
|---|---|
| Airport | Hong Kong International Airport (VHHH) |
| Time | Latitude | Longitude | Altitude | Speed | Heading |
|---|---|---|---|---|---|
| 2026-04-30 12:17 | 32.89664 | -97.04595 | 621 ft | 0 kts | 90° |
| 2026-04-30 12:23 | 32.89664 | -97.04601 | 621 ft | 2 kts | 90° |
| 2026-04-30 12:23 | 32.89664 | -97.04620 | 621 ft | 2 kts | 90° |
| 2026-04-30 12:23 | 32.89664 | -97.04638 | 617 ft | 2 kts | 90° |
| 2026-04-30 12:23 | 32.89664 | -97.04666 | 621 ft | 8 kts | 90° |
| 2026-04-30 12:24 | 32.89666 | -97.04729 | 621 ft | 4 kts | 104° |
| 2026-04-30 12:24 | 32.89677 | -97.04762 | 621 ft | 3 kts | 131° |
| 2026-04-30 12:24 | 32.89697 | -97.04772 | 621 ft | 8 kts | 180° |
| 2026-04-30 12:24 | 32.89735 | -97.04775 | 621 ft | 1 kts | 172° |
| 2026-04-30 12:25 | 32.89724 | -97.04773 | 621 ft | 7 kts | 173° |
| 2026-04-30 12:25 | 32.89649 | -97.04768 | 618 ft | 11 kts | 179° |
| 2026-04-30 12:25 | 32.89569 | -97.04767 | 611 ft | 12 kts | 180° |
| 2026-04-30 12:25 | 32.89485 | -97.04766 | 619 ft | 12 kts | 180° |
| 2026-04-30 12:26 | 32.89425 | -97.04775 | 617 ft | 8 kts | 202° |
| 2026-04-30 12:26 | 32.89405 | -97.04828 | 621 ft | 7 kts | 264° |
| 2026-04-30 12:26 | 32.89385 | -97.04869 | 617 ft | 6 kts | 210° |
| 2026-04-30 12:26 | 32.89299 | -97.04890 | 612 ft | 17 kts | 181° |
| 2026-04-30 12:27 | 32.89166 | -97.04891 | 611 ft | 24 kts | 180° |
| 2026-04-30 12:27 | 32.89013 | -97.04891 | 616 ft | 19 kts | 180° |
| 2026-04-30 12:27 | 32.88878 | -97.04892 | 618 ft | 19 kts | 180° |
| 2026-04-30 12:27 | 32.88746 | -97.04892 | 612 ft | 19 kts | 180° |
| 2026-04-30 12:28 | 32.88616 | -97.04893 | 612 ft | 19 kts | 180° |
| 2026-04-30 12:28 | 32.88485 | -97.04893 | 615 ft | 19 kts | 180° |
| 2026-04-30 12:28 | 32.88355 | -97.04894 | 612 ft | 18 kts | 180° |
| 2026-04-30 12:28 | 32.88228 | -97.04894 | 612 ft | 18 kts | 181° |
| 2026-04-30 12:29 | 32.88109 | -97.04896 | 612 ft | 15 kts | 180° |
| 2026-04-30 12:29 | 32.88017 | -97.04902 | 615 ft | 11 kts | 199° |
| 2026-04-30 12:29 | 32.87987 | -97.04971 | 619 ft | 10 kts | 266° |
| 2026-04-30 12:29 | 32.87986 | -97.05001 | 611 ft | 0 kts | 267° |
| 2026-04-30 12:30 | 32.87986 | -97.05013 | 607 ft | 5 kts | 269° |
| 2026-04-30 12:30 | 32.87998 | -97.05062 | 619 ft | 7 kts | 300° |
| 2026-04-30 12:30 | 32.88040 | -97.05087 | 618 ft | 6 kts | 349° |
| 2026-04-30 12:30 | 32.88083 | -97.05092 | 612 ft | 7 kts | 358° |
| 2026-04-30 12:31 | 32.88237 | -97.05092 | 618 ft | 48 kts | 0° |
| 2026-04-30 12:31 | 32.88807 | -97.05091 | 621 ft | 114 kts | 1° |
| 2026-04-30 12:31 | 32.89797 | -97.05089 | 618 ft | 170 kts | 1° |
| 2026-04-30 12:31 | 32.91163 | -97.05018 | 720 ft | 213 kts | 4° |
| 2026-04-30 12:32 | 32.92665 | -97.05035 | 1314 ft | 227 kts | 358° |
| 2026-04-30 12:32 | 32.94246 | -97.05177 | 2264 ft | 238 kts | 2° |
| 2026-04-30 12:32 | 32.95964 | -97.05229 | 3099 ft | 249 kts | 5° |
| 2026-04-30 12:32 | 32.97701 | -97.05243 | 4131 ft | 250 kts | 5° |
| 2026-04-30 12:33 | 32.99464 | -97.05248 | 4972 ft | 257 kts | 4° |
| 2026-04-30 12:33 | 33.01264 | -97.05259 | 5788 ft | 263 kts | 2° |
| 2026-04-30 12:33 | 33.03101 | -97.05276 | 6592 ft | 266 kts | 1° |
| 2026-04-30 12:33 | 33.04989 | -97.05292 | 7393 ft | 269 kts | 359° |
| 2026-04-30 12:34 | 33.06856 | -97.05330 | 8112 ft | 273 kts | 355° |
| 2026-04-30 12:34 | 33.08717 | -97.05531 | 8757 ft | 278 kts | 350° |
| 2026-04-30 12:34 | 33.10694 | -97.05834 | 9503 ft | 280 kts | 349° |
| 2026-04-30 12:34 | 33.12626 | -97.06130 | 10200 ft | 282 kts | 348° |
| 2026-04-30 12:35 | 33.14609 | -97.06435 | 10557 ft | 296 kts | 348° |
| 2026-04-30 12:35 | 33.16713 | -97.06765 | 10908 ft | 310 kts | 347° |
| 2026-04-30 12:35 | 33.18863 | -97.07090 | 11240 ft | 322 kts | 348° |
| 2026-04-30 12:35 | 33.21157 | -97.07418 | 11600 ft | 335 kts | 348° |
| 2026-04-30 12:36 | 33.23504 | -97.07757 | 11963 ft | 347 kts | 348° |
| 2026-04-30 12:36 | 33.25952 | -97.08114 | 12334 ft | 359 kts | 348° |
| 2026-04-30 12:36 | 33.28458 | -97.08480 | 12703 ft | 371 kts | 348° |
| 2026-04-30 12:36 | 33.31061 | -97.08861 | 13146 ft | 380 kts | 348° |
| 2026-04-30 12:37 | 33.33711 | -97.09256 | 13729 ft | 385 kts | 347° |
| 2026-04-30 12:37 | 33.36322 | -97.09850 | 14265 ft | 386 kts | 340° |
| 2026-04-30 12:37 | 33.38881 | -97.10869 | 14835 ft | 384 kts | 332° |
| 2026-04-30 12:37 | 33.41266 | -97.12264 | 15424 ft | 383 kts | 325° |
| 2026-04-30 12:38 | 33.43487 | -97.14029 | 16059 ft | 381 kts | 318° |
| 2026-04-30 12:38 | 33.45503 | -97.16135 | 16693 ft | 380 kts | 311° |
| 2026-04-30 12:38 | 33.47223 | -97.18467 | 17282 ft | 379 kts | 304° |
| 2026-04-30 12:38 | 33.48690 | -97.21061 | 17845 ft | 379 kts | 297° |
| 2026-04-30 12:39 | 33.49886 | -97.23885 | 18417 ft | 379 kts | 291° |
| 2026-04-30 12:39 | 33.50960 | -97.26786 | 18974 ft | 379 kts | 291° |
| 2026-04-30 12:39 | 33.52023 | -97.29695 | 19508 ft | 380 kts | 290° |
| 2026-04-30 12:39 | 33.53078 | -97.32584 | 20006 ft | 381 kts | 290° |
| 2026-04-30 12:40 | 33.54141 | -97.35492 | 20461 ft | 383 kts | 290° |
| 2026-04-30 12:40 | 33.55222 | -97.38449 | 20936 ft | 385 kts | 290° |
| 2026-04-30 12:40 | 33.56293 | -97.41375 | 21389 ft | 386 kts | 290° |
| 2026-04-30 12:40 | 33.57374 | -97.44329 | 21810 ft | 387 kts | 290° |
| 2026-04-30 12:41 | 33.58455 | -97.47283 | 22226 ft | 389 kts | 289° |
| 2026-04-30 12:41 | 33.59544 | -97.50262 | 22610 ft | 390 kts | 289° |
| 2026-04-30 12:41 | 33.60652 | -97.53298 | 23033 ft | 392 kts | 289° |
| 2026-04-30 12:41 | 33.61740 | -97.56278 | 23385 ft | 393 kts | 289° |
| 2026-04-30 12:42 | 33.62842 | -97.59304 | 23689 ft | 395 kts | 289° |
| 2026-04-30 12:42 | 33.63927 | -97.62287 | 23926 ft | 398 kts | 289° |
| 2026-04-30 12:42 | 33.65045 | -97.65360 | 24168 ft | 400 kts | 289° |
| 2026-04-30 12:42 | 33.66157 | -97.68420 | 24460 ft | 401 kts | 289° |
| 2026-04-30 12:43 | 33.67275 | -97.71498 | 24745 ft | 403 kts | 289° |
| 2026-04-30 12:43 | 33.68399 | -97.74594 | 25042 ft | 405 kts | 289° |
| 2026-04-30 12:43 | 33.69519 | -97.77683 | 25331 ft | 406 kts | 289° |
| 2026-04-30 12:43 | 33.70653 | -97.80821 | 25634 ft | 408 kts | 289° |
| 2026-04-30 12:44 | 33.71777 | -97.83930 | 25967 ft | 409 kts | 289° |
| 2026-04-30 12:44 | 33.72899 | -97.87033 | 26295 ft | 409 kts | 289° |
| 2026-04-30 12:44 | 33.74046 | -97.90205 | 26627 ft | 410 kts | 289° |
| 2026-04-30 12:44 | 33.75183 | -97.93354 | 26953 ft | 411 kts | 289° |
| 2026-04-30 12:45 | 33.76312 | -97.96486 | 27238 ft | 413 kts | 289° |
| 2026-04-30 12:45 | 33.77456 | -97.99664 | 27515 ft | 414 kts | 289° |
| 2026-04-30 12:45 | 33.78602 | -98.02850 | 27785 ft | 415 kts | 288° |
| 2026-04-30 12:45 | 33.79749 | -98.06042 | 28054 ft | 416 kts | 288° |
| 2026-04-30 12:46 | 33.80912 | -98.09283 | 28336 ft | 417 kts | 288° |
| 2026-04-30 12:46 | 33.82049 | -98.12455 | 28586 ft | 419 kts | 288° |
| 2026-04-30 12:46 | 33.83202 | -98.15674 | 28835 ft | 420 kts | 288° |
| 2026-04-30 12:46 | 33.84353 | -98.18887 | 29212 ft | 418 kts | 288° |
| 2026-04-30 12:47 | 33.85495 | -98.22076 | 29599 ft | 416 kts | 288° |
| 2026-04-30 12:47 | 33.86650 | -98.25306 | 29928 ft | 415 kts | 288° |
| 2026-04-30 12:47 | 33.87773 | -98.28453 | 30223 ft | 414 kts | 288° |
| 2026-04-30 12:47 | 33.88925 | -98.31684 | 30499 ft | 412 kts | 288° |
| 2026-04-30 12:48 | 33.90043 | -98.34823 | 30764 ft | 411 kts | 288° |
| 2026-04-30 12:48 | 33.91165 | -98.37975 | 31050 ft | 410 kts | 288° |
| 2026-04-30 12:48 | 33.92281 | -98.41114 | 31302 ft | 408 kts | 288° |
| 2026-04-30 12:48 | 33.93394 | -98.44251 | 31704 ft | 405 kts | 288° |
| 2026-04-30 12:49 | 33.94496 | -98.47352 | 32166 ft | 399 kts | 288° |
| 2026-04-30 12:49 | 33.95584 | -98.50392 | 32423 ft | 398 kts | 289° |
| 2026-04-30 12:49 | 33.96862 | -98.53377 | 32586 ft | 403 kts | 295° |
| 2026-04-30 12:49 | 33.98494 | -98.56216 | 32774 ft | 408 kts | 301° |
| 2026-04-30 12:50 | 34.00423 | -98.58738 | 32995 ft | 415 kts | 308° |
| 2026-04-30 12:50 | 34.02658 | -98.60938 | 33183 ft | 424 kts | 315° |
| 2026-04-30 12:50 | 34.05213 | -98.62783 | 33362 ft | 435 kts | 322° |
| 2026-04-30 12:50 | 34.07963 | -98.64329 | 33536 ft | 438 kts | 324° |
| 2026-04-30 12:51 | 34.10794 | -98.65829 | 33721 ft | 438 kts | 325° |
| 2026-04-30 12:51 | 34.13562 | -98.67267 | 33920 ft | 436 kts | 325° |
| 2026-04-30 12:51 | 34.16338 | -98.68708 | 34047 ft | 435 kts | 325° |
| 2026-04-30 12:51 | 34.19149 | -98.70182 | 34071 ft | 435 kts | 324° |
| 2026-04-30 12:52 | 34.24623 | -98.73078 | 34051 ft | 432 kts | 324° |
| 2026-04-30 12:52 | 34.30137 | -98.76023 | 34056 ft | 434 kts | 324° |
| 2026-04-30 12:53 | 34.35650 | -98.78971 | 34059 ft | 434 kts | 324° |
| 2026-04-30 12:53 | 34.40250 | -98.81429 | 34057 ft | 434 kts | 324° |
| 2026-04-30 12:54 | 34.45790 | -98.84390 | 34026 ft | 432 kts | 324° |
| 2026-04-30 12:54 | 34.51272 | -98.87322 | 34028 ft | 430 kts | 324° |
| 2026-04-30 12:55 | 34.56744 | -98.90263 | 34037 ft | 429 kts | 324° |
| 2026-04-30 12:55 | 34.62228 | -98.93215 | 34047 ft | 430 kts | 324° |
| 2026-04-30 12:56 | 34.67702 | -98.96163 | 34074 ft | 430 kts | 323° |
| 2026-04-30 12:56 | 34.73158 | -98.99101 | 34061 ft | 429 kts | 323° |
| 2026-04-30 12:57 | 34.78603 | -99.02040 | 34083 ft | 428 kts | 323° |
| 2026-04-30 12:57 | 34.84020 | -99.04970 | 34098 ft | 428 kts | 323° |
| 2026-04-30 12:58 | 34.89483 | -99.07929 | 34109 ft | 429 kts | 323° |
| 2026-04-30 12:58 | 34.94937 | -99.10885 | 34113 ft | 429 kts | 323° |
| 2026-04-30 12:59 | 35.00399 | -99.13854 | 34107 ft | 431 kts | 323° |
| 2026-04-30 12:59 | 35.05865 | -99.16826 | 34110 ft | 431 kts | 323° |
| 2026-04-30 13:00 | 35.11371 | -99.19823 | 34096 ft | 431 kts | 323° |
| 2026-04-30 13:00 | 35.16808 | -99.22788 | 34115 ft | 431 kts | 322° |
| 2026-04-30 13:01 | 35.22311 | -99.25794 | 34121 ft | 431 kts | 322° |
| 2026-04-30 13:01 | 35.27783 | -99.28788 | 34144 ft | 432 kts | 322° |
| 2026-04-30 13:02 | 35.33272 | -99.31795 | 34145 ft | 432 kts | 322° |
| 2026-04-30 13:02 | 35.38743 | -99.34796 | 34139 ft | 432 kts | 322° |
| 2026-04-30 13:03 | 35.44237 | -99.37816 | 34139 ft | 433 kts | 322° |
| 2026-04-30 13:03 | 35.49778 | -99.40866 | 34136 ft | 434 kts | 322° |
| 2026-04-30 13:04 | 35.55262 | -99.43888 | 34132 ft | 434 kts | 322° |
| 2026-04-30 13:04 | 35.60746 | -99.46914 | 34120 ft | 434 kts | 322° |
| 2026-04-30 13:05 | 35.66295 | -99.49985 | 34121 ft | 436 kts | 322° |
| 2026-04-30 13:06 | 35.74588 | -99.54577 | 34123 ft | 437 kts | 322° |
| 2026-04-30 13:06 | 35.80139 | -99.57655 | 34119 ft | 437 kts | 322° |
| 2026-04-30 13:07 | 35.85685 | -99.60737 | 34114 ft | 437 kts | 322° |
| 2026-04-30 13:07 | 35.91205 | -99.63810 | 34122 ft | 437 kts | 322° |
| 2026-04-30 13:08 | 35.96742 | -99.66899 | 34126 ft | 438 kts | 322° |
| 2026-04-30 13:08 | 36.02307 | -99.70006 | 34145 ft | 438 kts | 322° |
| 2026-04-30 13:09 | 36.07860 | -99.73109 | 34160 ft | 438 kts | 322° |
| 2026-04-30 13:09 | 36.13411 | -99.76218 | 34182 ft | 438 kts | 322° |
| 2026-04-30 13:10 | 36.18938 | -99.79320 | 34171 ft | 439 kts | 322° |
| 2026-04-30 13:10 | 36.24536 | -99.82466 | 34190 ft | 439 kts | 322° |
| 2026-04-30 13:11 | 36.30082 | -99.85587 | 34182 ft | 440 kts | 322° |
| 2026-04-30 13:11 | 36.35672 | -99.88742 | 34184 ft | 442 kts | 321° |
| 2026-04-30 13:12 | 36.41227 | -99.91896 | 34173 ft | 437 kts | 321° |
| 2026-04-30 13:12 | 36.46751 | -99.95050 | 34169 ft | 436 kts | 321° |
| 2026-04-30 13:13 | 36.55020 | -99.99785 | 34149 ft | 437 kts | 321° |
| 2026-04-30 13:14 | 36.63283 | -100.04513 | 34143 ft | 431 kts | 321° |
| 2026-04-30 13:14 | 36.71391 | -100.09166 | 34149 ft | 428 kts | 321° |
| 2026-04-30 13:15 | 36.79524 | -100.13861 | 34144 ft | 430 kts | 321° |
| 2026-04-30 13:16 | 36.84925 | -100.16976 | 34145 ft | 429 kts | 321° |
| 2026-04-30 13:16 | 36.90372 | -100.20120 | 34141 ft | 429 kts | 321° |
| 2026-04-30 13:17 | 36.98507 | -100.24832 | 34142 ft | 431 kts | 321° |
| 2026-04-30 13:18 | 37.06659 | -100.29561 | 34148 ft | 432 kts | 321° |
| 2026-04-30 13:18 | 37.14884 | -100.34345 | 34148 ft | 434 kts | 321° |
| 2026-04-30 13:19 | 37.20333 | -100.37518 | 34148 ft | 434 kts | 321° |
| 2026-04-30 13:19 | 37.25841 | -100.40731 | 34209 ft | 433 kts | 321° |
| 2026-04-30 13:20 | 37.31293 | -100.43921 | 34152 ft | 435 kts | 321° |
| 2026-04-30 13:20 | 37.36798 | -100.47147 | 34153 ft | 436 kts | 321° |
| 2026-04-30 13:21 | 37.42322 | -100.50384 | 34153 ft | 436 kts | 321° |
| 2026-04-30 13:22 | 37.50508 | -100.55193 | 34150 ft | 436 kts | 321° |
| 2026-04-30 13:22 | 37.58784 | -100.60071 | 34153 ft | 437 kts | 321° |
| 2026-04-30 13:23 | 37.67035 | -100.64945 | 34166 ft | 438 kts | 321° |
| 2026-04-30 13:24 | 37.78102 | -100.71496 | 34194 ft | 437 kts | 322° |
| 2026-04-30 13:25 | 37.89066 | -100.78013 | 34199 ft | 437 kts | 321° |
| 2026-04-30 13:26 | 38.02844 | -100.86232 | 34163 ft | 437 kts | 321° |
| 2026-04-30 13:28 | 38.16553 | -100.94445 | 34188 ft | 437 kts | 322° |
| 2026-04-30 13:28 | 38.24806 | -100.99404 | 34205 ft | 437 kts | 322° |
| 2026-04-30 13:29 | 38.35806 | -101.06034 | 34206 ft | 437 kts | 322° |
| 2026-04-30 13:31 | 38.49589 | -101.14373 | 34205 ft | 437 kts | 321° |
| 2026-04-30 13:32 | 38.63292 | -101.22701 | 34174 ft | 437 kts | 321° |
| 2026-04-30 13:33 | 38.74273 | -101.29399 | 34160 ft | 438 kts | 321° |
| 2026-04-30 13:34 | 38.82566 | -101.34477 | 34170 ft | 440 kts | 321° |
| 2026-04-30 13:35 | 38.92657 | -101.40666 | 34168 ft | 441 kts | 321° |
| 2026-04-30 13:36 | 39.04630 | -101.48037 | 34158 ft | 441 kts | 321° |
| 2026-04-30 13:36 | 39.12952 | -101.53177 | 34172 ft | 442 kts | 321° |
| 2026-04-30 13:37 | 39.20304 | -101.57729 | 34182 ft | 441 kts | 321° |
| 2026-04-30 13:38 | 39.29529 | -101.63458 | 34192 ft | 443 kts | 322° |
| 2026-04-30 13:39 | 39.39590 | -101.70069 | 34172 ft | 432 kts | 315° |
| 2026-04-30 13:40 | 39.46926 | -101.76840 | 34183 ft | 432 kts | 314° |
| 2026-04-30 13:40 | 39.51796 | -101.81456 | 34188 ft | 435 kts | 314° |
| 2026-04-30 13:41 | 39.56667 | -101.86065 | 34200 ft | 435 kts | 314° |
| 2026-04-30 13:41 | 39.61566 | -101.90697 | 34200 ft | 434 kts | 314° |
| 2026-04-30 13:42 | 39.66439 | -101.95316 | 34211 ft | 435 kts | 315° |
| 2026-04-30 13:42 | 39.73794 | -102.02307 | 34187 ft | 440 kts | 315° |
| 2026-04-30 13:43 | 39.78734 | -102.07006 | 34197 ft | 441 kts | 315° |
| 2026-04-30 13:43 | 39.83695 | -102.11734 | 34192 ft | 442 kts | 315° |
| 2026-04-30 13:44 | 39.88655 | -102.16476 | 34192 ft | 444 kts | 316° |
| 2026-04-30 13:44 | 39.93636 | -102.21243 | 34190 ft | 445 kts | 316° |
| 2026-04-30 13:45 | 40.01151 | -102.28448 | 34198 ft | 445 kts | 316° |
| 2026-04-30 13:46 | 40.06147 | -102.33251 | 34204 ft | 445 kts | 316° |
| 2026-04-30 13:46 | 40.11117 | -102.38039 | 34208 ft | 445 kts | 316° |
| 2026-04-30 13:47 | 40.16109 | -102.42858 | 34202 ft | 445 kts | 315° |
| 2026-04-30 13:47 | 40.21080 | -102.47666 | 34218 ft | 446 kts | 315° |
| 2026-04-30 13:48 | 40.26037 | -102.52472 | 34215 ft | 447 kts | 316° |
| 2026-04-30 13:48 | 40.31054 | -102.57342 | 34210 ft | 448 kts | 316° |
| 2026-04-30 13:49 | 40.36049 | -102.62197 | 34209 ft | 448 kts | 316° |
| 2026-04-30 13:49 | 40.41093 | -102.67110 | 34206 ft | 448 kts | 316° |
| 2026-04-30 13:50 | 40.46075 | -102.71974 | 34211 ft | 448 kts | 317° |
| 2026-04-30 13:50 | 40.53571 | -102.79309 | 34201 ft | 449 kts | 317° |
| 2026-04-30 13:51 | 40.58615 | -102.84256 | 34195 ft | 450 kts | 317° |
| 2026-04-30 13:51 | 40.63617 | -102.89171 | 34208 ft | 450 kts | 317° |
| 2026-04-30 13:52 | 40.68615 | -102.94093 | 34192 ft | 450 kts | 317° |
| 2026-04-30 13:52 | 40.73622 | -102.99032 | 34186 ft | 451 kts | 317° |
| 2026-04-30 13:53 | 40.78647 | -103.03997 | 34190 ft | 451 kts | 317° |
| 2026-04-30 13:53 | 40.83644 | -103.08946 | 34197 ft | 451 kts | 317° |
| 2026-04-30 13:54 | 40.88699 | -103.13963 | 34178 ft | 451 kts | 317° |
| 2026-04-30 13:54 | 40.93682 | -103.18918 | 34181 ft | 452 kts | 317° |
| 2026-04-30 13:55 | 40.98726 | -103.23942 | 34178 ft | 452 kts | 317° |
| 2026-04-30 13:55 | 41.03745 | -103.28950 | 34186 ft | 452 kts | 317° |
| 2026-04-30 13:56 | 41.08776 | -103.33981 | 34189 ft | 453 kts | 317° |
| 2026-04-30 13:56 | 41.13818 | -103.39032 | 34200 ft | 453 kts | 317° |
| 2026-04-30 13:57 | 41.18845 | -103.44079 | 34214 ft | 453 kts | 317° |
| 2026-04-30 13:57 | 41.23861 | -103.49127 | 34221 ft | 453 kts | 318° |
| 2026-04-30 13:58 | 41.31392 | -103.56721 | 34232 ft | 453 kts | 318° |
| 2026-04-30 13:59 | 41.36397 | -103.61779 | 34204 ft | 453 kts | 318° |
| 2026-04-30 13:59 | 41.41413 | -103.66863 | 34215 ft | 453 kts | 318° |
| 2026-04-30 14:00 | 41.46395 | -103.71918 | 34211 ft | 452 kts | 319° |
| 2026-04-30 14:00 | 41.53890 | -103.79541 | 34220 ft | 451 kts | 318° |
| 2026-04-30 14:01 | 41.58888 | -103.84642 | 34224 ft | 452 kts | 319° |
| 2026-04-30 14:01 | 41.63865 | -103.89730 | 34222 ft | 453 kts | 319° |
| 2026-04-30 14:02 | 41.68918 | -103.94905 | 34217 ft | 454 kts | 319° |
| 2026-04-30 14:02 | 41.73897 | -104.00013 | 34216 ft | 454 kts | 319° |
| 2026-04-30 14:03 | 41.78942 | -104.05200 | 34211 ft | 454 kts | 319° |
| 2026-04-30 14:03 | 41.83914 | -104.10323 | 34225 ft | 454 kts | 319° |
| 2026-04-30 14:04 | 41.88962 | -104.15534 | 34234 ft | 454 kts | 319° |
| 2026-04-30 14:04 | 41.93967 | -104.20711 | 34240 ft | 454 kts | 319° |
| 2026-04-30 14:05 | 41.98935 | -104.25863 | 34246 ft | 455 kts | 319° |
| 2026-04-30 14:05 | 42.03950 | -104.31072 | 34242 ft | 456 kts | 319° |
| 2026-04-30 14:06 | 42.11471 | -104.38903 | 34250 ft | 456 kts | 319° |
| 2026-04-30 14:07 | 42.19012 | -104.46782 | 34238 ft | 456 kts | 319° |
| 2026-04-30 14:08 | 42.26517 | -104.54645 | 34246 ft | 456 kts | 319° |
| 2026-04-30 14:08 | 42.34017 | -104.62529 | 34247 ft | 456 kts | 319° |
| 2026-04-30 14:09 | 42.39022 | -104.67805 | 34251 ft | 456 kts | 319° |
| 2026-04-30 14:10 | 42.46539 | -104.75745 | 34243 ft | 456 kts | 319° |
| 2026-04-30 14:10 | 42.51529 | -104.81031 | 34247 ft | 456 kts | 319° |
| 2026-04-30 14:11 | 42.56488 | -104.86296 | 34241 ft | 456 kts | 319° |
| 2026-04-30 14:11 | 42.61476 | -104.91601 | 34239 ft | 456 kts | 319° |
| 2026-04-30 14:12 | 42.66493 | -104.96951 | 34250 ft | 457 kts | 319° |
| 2026-04-30 14:12 | 42.71493 | -105.02292 | 34242 ft | 458 kts | 319° |
| 2026-04-30 14:13 | 42.76527 | -105.07680 | 34240 ft | 458 kts | 319° |
| 2026-04-30 14:13 | 42.81465 | -105.12978 | 34241 ft | 457 kts | 319° |
| 2026-04-30 14:14 | 42.86481 | -105.18370 | 34245 ft | 457 kts | 319° |
| 2026-04-30 14:14 | 42.91461 | -105.23735 | 34229 ft | 457 kts | 319° |
| 2026-04-30 14:15 | 42.96466 | -105.29139 | 34212 ft | 457 kts | 320° |
| 2026-04-30 14:15 | 43.01471 | -105.34559 | 34229 ft | 458 kts | 320° |
| 2026-04-30 14:16 | 43.06434 | -105.39938 | 34216 ft | 457 kts | 320° |
| 2026-04-30 14:16 | 43.11423 | -105.45356 | 34217 ft | 457 kts | 320° |
| 2026-04-30 14:17 | 43.16399 | -105.50774 | 34205 ft | 457 kts | 320° |
| 2026-04-30 14:17 | 43.21372 | -105.56202 | 34206 ft | 457 kts | 320° |
| 2026-04-30 14:18 | 43.26331 | -105.61624 | 34205 ft | 456 kts | 320° |
| 2026-04-30 14:18 | 43.33769 | -105.69782 | 34219 ft | 458 kts | 320° |
| 2026-04-30 14:19 | 43.41284 | -105.78049 | 34191 ft | 460 kts | 320° |
| 2026-04-30 14:20 | 43.46255 | -105.83531 | 34206 ft | 460 kts | 320° |
| 2026-04-30 14:20 | 43.53767 | -105.91841 | 34197 ft | 460 kts | 321° |
| 2026-04-30 14:21 | 43.58726 | -105.97340 | 34203 ft | 459 kts | 321° |
| 2026-04-30 14:22 | 43.66174 | -106.05622 | 34211 ft | 461 kts | 321° |
| 2026-04-30 14:22 | 43.73660 | -106.13976 | 34218 ft | 461 kts | 321° |
| 2026-04-30 14:23 | 43.83628 | -106.25142 | 34234 ft | 461 kts | 321° |
| 2026-04-30 14:24 | 43.90289 | -106.32633 | 34222 ft | 460 kts | 321° |
| 2026-04-30 14:25 | 44.00203 | -106.43818 | 34245 ft | 460 kts | 321° |
| 2026-04-30 14:26 | 44.07541 | -106.52307 | 34212 ft | 459 kts | 320° |
| 2026-04-30 14:27 | 44.14857 | -106.60872 | 34204 ft | 460 kts | 320° |
| 2026-04-30 14:27 | 44.19787 | -106.66641 | 34226 ft | 458 kts | 321° |
| 2026-04-30 14:28 | 44.27055 | -106.75158 | 34201 ft | 458 kts | 321° |
| 2026-04-30 14:28 | 44.31940 | -106.80898 | 34236 ft | 458 kts | 321° |
| 2026-04-30 14:29 | 44.41668 | -106.92371 | 34208 ft | 456 kts | 321° |
| 2026-04-30 14:31 | 44.53760 | -107.06703 | 34230 ft | 456 kts | 321° |
| 2026-04-30 14:31 | 44.61007 | -107.15331 | 34260 ft | 456 kts | 320° |
| 2026-04-30 14:32 | 44.68258 | -107.23994 | 34233 ft | 456 kts | 320° |
| 2026-04-30 14:33 | 44.73084 | -107.29776 | 34250 ft | 456 kts | 320° |
| 2026-04-30 14:33 | 44.80310 | -107.38458 | 34243 ft | 457 kts | 320° |
| 2026-04-30 14:34 | 44.85165 | -107.44311 | 34257 ft | 456 kts | 320° |
| 2026-04-30 14:34 | 44.89960 | -107.50103 | 34231 ft | 455 kts | 320° |
| 2026-04-30 14:35 | 44.97135 | -107.58790 | 34242 ft | 455 kts | 320° |
| 2026-04-30 14:36 | 45.01958 | -107.64648 | 34251 ft | 454 kts | 320° |
| 2026-04-30 14:36 | 45.06706 | -107.70428 | 34221 ft | 452 kts | 320° |
| 2026-04-30 14:37 | 45.11500 | -107.76277 | 34236 ft | 452 kts | 320° |
| 2026-04-30 14:37 | 45.16247 | -107.82083 | 34248 ft | 453 kts | 320° |
| 2026-04-30 14:38 | 45.21006 | -107.87918 | 34223 ft | 452 kts | 320° |
| 2026-04-30 14:38 | 45.25759 | -107.93758 | 34220 ft | 451 kts | 320° |
| 2026-04-30 14:39 | 45.30500 | -107.99596 | 34216 ft | 451 kts | 320° |
| 2026-04-30 14:39 | 45.35225 | -108.05427 | 34221 ft | 451 kts | 320° |
| 2026-04-30 14:40 | 45.42326 | -108.14217 | 34219 ft | 451 kts | 320° |
| 2026-04-30 14:40 | 45.47071 | -108.20107 | 34223 ft | 452 kts | 320° |
| 2026-04-30 14:41 | 45.51784 | -108.25970 | 34219 ft | 452 kts | 320° |
| 2026-04-30 14:41 | 45.56535 | -108.31896 | 34221 ft | 452 kts | 320° |
| 2026-04-30 14:42 | 45.61250 | -108.37790 | 34218 ft | 452 kts | 320° |
| 2026-04-30 14:42 | 45.65977 | -108.43713 | 34220 ft | 452 kts | 320° |
| 2026-04-30 14:43 | 45.70685 | -108.49625 | 34255 ft | 452 kts | 320° |
| 2026-04-30 14:43 | 45.75394 | -108.55553 | 34256 ft | 451 kts | 320° |
| 2026-04-30 14:44 | 45.80104 | -108.61532 | 34249 ft | 452 kts | 317° |
| 2026-04-30 14:44 | 45.84368 | -108.68107 | 34266 ft | 452 kts | 313° |
| 2026-04-30 14:45 | 45.88583 | -108.74930 | 34256 ft | 453 kts | 313° |
| 2026-04-30 14:45 | 45.92721 | -108.81666 | 34243 ft | 453 kts | 313° |
| 2026-04-30 14:46 | 45.96881 | -108.88444 | 34233 ft | 453 kts | 313° |
| 2026-04-30 14:46 | 46.01053 | -108.95254 | 34219 ft | 453 kts | 313° |
| 2026-04-30 14:47 | 46.05217 | -109.02064 | 34236 ft | 454 kts | 313° |
| 2026-04-30 14:47 | 46.09362 | -109.08862 | 34238 ft | 454 kts | 313° |
| 2026-04-30 14:48 | 46.13542 | -109.15736 | 34233 ft | 454 kts | 312° |
| 2026-04-30 14:48 | 46.17680 | -109.22557 | 34241 ft | 453 kts | 312° |
| 2026-04-30 14:49 | 46.21851 | -109.29450 | 34236 ft | 453 kts | 312° |
| 2026-04-30 14:49 | 46.25975 | -109.36282 | 34229 ft | 453 kts | 312° |
| 2026-04-30 14:50 | 46.32210 | -109.46642 | 34229 ft | 454 kts | 312° |
| 2026-04-30 14:51 | 46.38406 | -109.56979 | 34232 ft | 455 kts | 312° |
| 2026-04-30 14:52 | 46.44614 | -109.67372 | 34206 ft | 455 kts | 312° |
| 2026-04-30 14:52 | 46.50815 | -109.77795 | 34227 ft | 455 kts | 312° |
| 2026-04-30 14:53 | 46.57008 | -109.88244 | 34230 ft | 456 kts | 312° |
| 2026-04-30 14:54 | 46.65266 | -110.02240 | 34237 ft | 456 kts | 312° |
| 2026-04-30 14:55 | 46.71461 | -110.12788 | 34237 ft | 456 kts | 313° |
| 2026-04-30 14:56 | 46.79703 | -110.26884 | 34260 ft | 456 kts | 312° |
| 2026-04-30 14:57 | 46.85864 | -110.37470 | 34257 ft | 458 kts | 313° |
| 2026-04-30 14:58 | 46.94095 | -110.51669 | 34254 ft | 458 kts | 313° |
| 2026-04-30 14:58 | 47.00285 | -110.62399 | 34279 ft | 459 kts | 313° |
| 2026-04-30 15:00 | 47.10529 | -110.80252 | 34274 ft | 459 kts | 313° |
| 2026-04-30 15:01 | 47.18736 | -110.94639 | 34268 ft | 460 kts | 313° |
| 2026-04-30 15:01 | 47.24920 | -111.05529 | 34261 ft | 461 kts | 313° |
| 2026-04-30 15:02 | 47.29003 | -111.12745 | 34265 ft | 461 kts | 313° |
| 2026-04-30 15:03 | 47.39274 | -111.30977 | 34281 ft | 465 kts | 313° |
| 2026-04-30 15:04 | 47.49331 | -111.49612 | 34283 ft | 467 kts | 309° |
| 2026-04-30 15:06 | 47.58703 | -111.69309 | 34235 ft | 468 kts | 310° |
| 2026-04-30 15:07 | 47.66296 | -111.84992 | 34232 ft | 469 kts | 310° |
| 2026-04-30 15:08 | 47.73887 | -112.00761 | 34231 ft | 470 kts | 310° |
| 2026-04-30 15:09 | 47.83365 | -112.20594 | 34227 ft | 472 kts | 310° |
| 2026-04-30 15:10 | 47.90949 | -112.36563 | 34224 ft | 472 kts | 310° |
| 2026-04-30 15:11 | 48.01660 | -112.59285 | 34218 ft | 473 kts | 310° |
| 2026-04-30 15:13 | 48.11695 | -112.80734 | 34219 ft | 473 kts | 310° |
| 2026-04-30 15:14 | 48.24196 | -113.07707 | 34246 ft | 472 kts | 310° |
| 2026-04-30 15:17 | 48.40968 | -113.44316 | 34266 ft | 473 kts | 310° |
| 2026-04-30 15:19 | 48.55809 | -113.77147 | 34279 ft | 474 kts | 310° |